aviador You're here:

KFUL Decoded Metar

FULLERTON in CA, USA
Report Time2017-09-20 12:33:00
UTC Time2017-09-20 12:55:22
Flight Rules vfr VFR
WindCalm
Visibility9999 m
Phenomena:N/A
Clouds:Scattered 028 Hf
Overcast 037 Hf
Expected CloudBase > 1,200 ft AGL from Temp-Dew spread
Ceiling3,700 ft
Temp19°C (ISA +4)
Dew Point16°C (83% RH)
QNH1011 hPa
Density Alt922 ft
Elevation115 ft
Report Wrong Elevation
Raw Report
KFUL 201233Z AUTO 00000KT 10SM SCT028 OVC037 19/16 A2985 RMK AO2
T01940161=

Extra information for KFUL:More info

Metar Taf Metar & Taf Last 4 Metars F.Rules Stats Wind Profile Meteogram Temp Stats Airport Information Weather charts Add Link Nearby VenuesMetar ALERT Operation Metar Decoded Social comments

AIRNAV info for KFUL